MCO weather

Orlando International Airport
Orlando, Florida, United States

Public forecast

Using degrees Fahrenheit for public forecast. Weather courtesy of forecast.io.

METAR (pilot weather report)

Retrieved 2018/06/18 13:53 UTC (57 minutes ago):

KMCO 181353Z 04007KT 10SM SCT018 SCT250 29/24 A3013 RMK AO2 SLP202 T02890239

TAF (pilot weather forecast)

Retrieved 2018/06/18 12:28 UTC (2 hours ago):

TAF KMCO 181126Z 1812/1918 05004KT P6SM FEW020 SCT250 FM181500 08009KT P6SM SCT025 SCT040 FM190100 09003KT P6SM FEW045